Time;durP1;ratioP1;P1;durP2;ratioP2;P2;SDS_P1;SDS_P2;PMS_P1;PMS_P2;Temp;Humidity;BMP_temperature;BMP_pressure;BME280_temperature;BME280_humidity;BME280_pressure;Samples;Min_cycle;Max_cycle;Signal;HPM_P1;HPM_P2
2022/09/02 00:00:44;;;;;;;4.25;1.25;;;14.00;95.50;;;;;;5014188;28;20046;-72
2022/09/02 00:03:10;;;;;;;3.13;1.20;;;14.00;95.80;;;;;;5008485;28;20079;-73
2022/09/02 00:05:36;;;;;;;2.88;1.10;;;13.90;95.70;;;;;;5010236;28;20076;-73
2022/09/02 00:08:03;;;;;;;3.08;1.27;;;13.90;96.00;;;;;;5015602;28;20453;-72
2022/09/02 00:10:29;;;;;;;5.88;1.27;;;13.80;96.00;;;;;;5010528;28;20053;-73
2022/09/02 00:12:55;;;;;;;4.50;1.30;;;13.80;96.40;;;;;;5011305;28;20050;-73
2022/09/02 00:15:21;;;;;;;3.17;1.10;;;13.80;96.50;;;;;;5047417;28;20376;-73
2022/09/02 00:17:47;;;;;;;3.30;1.20;;;13.70;96.60;;;;;;5026861;28;20052;-72
2022/09/02 00:20:13;;;;;;;2.90;1.05;;;13.70;96.70;;;;;;5049202;28;20045;-72
2022/09/02 00:22:39;;;;;;;4.85;1.30;;;13.70;97.00;;;;;;5012146;28;20285;-72
2022/09/02 00:25:05;;;;;;;4.43;1.40;;;13.70;97.40;;;;;;5049941;28;20090;-72
2022/09/02 00:27:31;;;;;;;3.72;1.15;;;13.70;97.30;;;;;;5036314;28;20037;-73
2022/09/02 00:29:56;;;;;;;3.63;1.30;;;13.70;97.30;;;;;;5021244;28;20064;-72
2022/09/02 00:32:22;;;;;;;4.05;1.20;;;13.70;97.40;;;;;;5034136;28;20049;-72
2022/09/02 00:34:48;;;;;;;3.42;1.20;;;13.70;97.20;;;;;;5034328;28;20092;-72
2022/09/02 00:37:14;;;;;;;3.75;1.30;;;13.80;97.60;;;;;;5048242;28;20045;-72
2022/09/02 00:39:39;;;;;;;3.75;1.20;;;13.80;97.40;;;;;;5035065;28;20038;-72
2022/09/02 00:42:05;;;;;;;2.67;1.30;;;13.80;97.80;;;;;;5031129;28;20045;-72
2022/09/02 00:44:32;;;;;;;5.82;1.10;;;13.80;97.60;;;;;;5055067;28;20044;-75
2022/09/02 00:46:59;;;;;;;2.63;1.13;;;13.80;97.70;;;;;;5037451;28;20536;-72
2022/09/02 00:49:31;;;;;;;3.90;1.20;;;13.80;98.10;;;;;;5034060;28;20037;-71
2022/09/02 00:52:08;;;;;;;5.03;1.20;;;13.80;98.00;;;;;;5018642;28;20496;-73
2022/09/02 00:54:40;;;;;;;5.65;1.30;;;13.80;98.30;;;;;;5033054;28;20037;-72
2022/09/02 00:57:12;;;;;;;5.47;1.25;;;13.80;98.20;;;;;;5029867;28;20041;-72
2022/09/02 00:59:49;;;;;;;3.83;1.20;;;13.80;98.20;;;;;;5020095;28;20037;-73
2022/09/02 01:02:16;;;;;;;3.63;1.20;;;13.80;97.90;;;;;;5054622;28;20045;-71
2022/09/02 01:04:42;;;;;;;3.97;1.20;;;13.80;97.80;;;;;;5054409;28;20073;-72
2022/09/02 01:07:08;;;;;;;3.00;1.20;;;13.80;97.80;;;;;;5035958;28;20037;-72
2022/09/02 01:09:35;;;;;;;3.78;1.30;;;13.80;98.00;;;;;;5017187;28;20056;-72
2022/09/02 01:12:02;;;;;;;4.78;1.20;;;13.80;98.10;;;;;;5025148;28;20041;-72
2022/09/02 01:14:29;;;;;;;3.25;1.25;;;13.80;98.30;;;;;;5035636;28;20114;-73
2022/09/02 01:17:01;;;;;;;3.30;1.20;;;13.80;98.40;;;;;;5034252;28;20045;-73
2022/09/02 01:19:56;;;;;;;;;;;13.70;98.80;;;;;;5026662;28;20102;-72
2022/09/02 01:22:25;;;;;;;4.35;1.20;;;13.70;99.20;;;;;;5016930;28;19916;-72
2022/09/02 01:24:51;;;;;;;3.60;1.20;;;13.70;99.00;;;;;;5035214;28;20052;-72
2022/09/02 01:27:20;;;;;;;4.10;1.20;;;13.70;98.80;;;;;;5033474;28;20052;-73
2022/09/02 01:29:54;;;;;;;3.10;1.33;;;13.70;98.90;;;;;;5054392;28;20379;-73
2022/09/02 01:32:21;;;;;;;2.75;1.10;;;13.60;98.80;;;;;;5036310;28;20048;-73
2022/09/02 01:34:46;;;;;;;4.30;1.10;;;13.60;99.00;;;;;;5036745;28;20045;-73
2022/09/02 01:37:12;;;;;;;2.85;1.10;;;13.60;99.00;;;;;;5018383;28;20060;-73
2022/09/02 01:39:39;;;;;;;4.60;1.25;;;13.50;98.90;;;;;;5018371;28;20112;-72
2022/09/02 01:42:04;;;;;;;3.40;1.15;;;13.50;98.80;;;;;;5022858;28;20480;-72
2022/09/02 01:44:31;;;;;;;4.20;1.30;;;13.50;98.90;;;;;;5034652;28;20136;-72
2022/09/02 01:46:57;;;;;;;3.67;1.10;;;13.50;99.60;;;;;;5007970;28;20045;-73
2022/09/02 01:49:23;;;;;;;2.78;1.20;;;13.50;99.50;;;;;;5035280;28;20044;-72
2022/09/02 01:51:48;;;;;;;3.20;1.17;;;13.40;99.40;;;;;;5029208;28;20051;-73
2022/09/02 01:54:14;;;;;;;4.25;1.30;;;13.50;99.70;;;;;;5053056;28;20037;-72
2022/09/02 01:56:40;;;;;;;3.00;1.20;;;13.40;99.70;;;;;;5042924;28;20096;-72
2022/09/02 01:59:06;;;;;;;4.28;1.30;;;13.40;99.90;;;;;;5049863;28;20084;-72
2022/09/02 02:01:34;;;;;;;3.90;1.20;;;13.40;99.90;;;;;;5035748;28;20470;-71
2022/09/02 02:04:00;;;;;;;3.35;1.20;;;13.40;99.90;;;;;;5019978;28;20104;-72
2022/09/02 02:06:26;;;;;;;3.63;1.30;;;13.40;99.90;;;;;;5022439;28;20044;-72
2022/09/02 02:08:52;;;;;;;3.30;1.17;;;13.30;99.90;;;;;;5032025;28;20049;-72
2022/09/02 02:11:21;;;;;;;4.28;1.20;;;13.30;99.90;;;;;;5034114;28;20430;-73
2022/09/02 02:13:47;;;;;;;5.15;1.40;;;13.30;99.90;;;;;;5018585;28;20056;-73
2022/09/02 02:16:13;;;;;;;5.13;1.33;;;13.30;99.90;;;;;;5035050;28;20063;-73
2022/09/02 02:18:39;;;;;;;3.78;1.30;;;13.30;99.90;;;;;;5035250;28;20041;-73
2022/09/02 02:21:04;;;;;;;4.43;1.10;;;13.20;99.90;;;;;;5052506;28;20395;-72
2022/09/02 02:23:30;;;;;;;3.10;1.20;;;13.20;99.90;;;;;;5051986;28;20051;-73
2022/09/02 02:25:56;;;;;;;3.42;1.35;;;13.10;99.90;;;;;;5021150;28;20043;-72
2022/09/02 02:28:22;;;;;;;3.47;1.30;;;13.10;99.90;;;;;;5016064;28;20073;-71
2022/09/02 02:30:48;;;;;;;3.80;1.30;;;13.10;99.90;;;;;;5033988;28;20499;-73
2022/09/02 02:33:13;;;;;;;3.55;1.23;;;13.10;99.90;;;;;;5038039;28;20076;-72
2022/09/02 02:35:40;;;;;;;3.58;1.30;;;13.10;99.90;;;;;;5027789;28;20399;-72
2022/09/02 02:38:07;;;;;;;3.63;1.33;;;13.10;99.90;;;;;;5020678;28;20072;-72
2022/09/02 02:40:33;;;;;;;4.30;1.27;;;13.10;99.90;;;;;;5002124;28;20057;-73
2022/09/02 02:42:58;;;;;;;3.10;1.27;;;13.00;99.90;;;;;;5015660;28;20053;-73
2022/09/02 02:45:24;;;;;;;3.90;1.35;;;13.00;99.90;;;;;;5046239;28;20120;-72
2022/09/02 02:47:51;;;;;;;4.35;1.50;;;13.00;99.90;;;;;;5022068;28;20048;-72
2022/09/02 02:50:20;;;;;;;4.35;1.30;;;13.00;99.90;;;;;;5052221;28;20041;-73
2022/09/02 02:52:47;;;;;;;4.22;1.58;;;13.00;99.90;;;;;;5044431;28;20036;-72
2022/09/02 02:55:14;;;;;;;3.45;1.35;;;13.10;99.90;;;;;;5034011;28;20053;-72
2022/09/02 02:57:42;;;;;;;4.78;1.60;;;13.00;99.90;;;;;;5035054;28;20040;-72
2022/09/02 03:00:35;;;;;;;5.05;1.30;;;13.00;99.90;;;;;;5026391;28;20041;-71
2022/09/02 03:03:06;;;;;;;3.75;1.30;;;13.00;99.90;;;;;;5016189;28;20128;-72
2022/09/02 03:05:34;;;;;;;3.58;1.40;;;12.90;99.90;;;;;;5030365;28;20053;-73
2022/09/02 03:08:01;;;;;;;3.80;1.50;;;12.90;99.90;;;;;;5037826;28;20092;-72
2022/09/02 03:10:31;;;;;;;3.00;1.17;;;13.00;99.90;;;;;;5039474;28;20049;-72
2022/09/02 03:12:58;;;;;;;3.35;1.30;;;12.90;99.90;;;;;;5035464;28;20056;-72
2022/09/02 03:15:24;;;;;;;4.72;1.50;;;12.90;99.90;;;;;;5000970;28;20504;-72
2022/09/02 03:17:49;;;;;;;4.00;1.40;;;12.80;99.90;;;;;;4999857;28;20066;-72
2022/09/02 03:20:16;;;;;;;4.90;1.52;;;12.80;99.90;;;;;;5018696;28;20476;-73
2022/09/02 03:22:43;;;;;;;3.25;1.30;;;12.80;99.90;;;;;;5017440;28;20084;-72
2022/09/02 03:25:11;;;;;;;3.92;1.52;;;12.80;99.90;;;;;;4999057;28;20380;-72
2022/09/02 03:27:38;;;;;;;4.65;1.60;;;12.80;99.90;;;;;;4982500;28;20057;-72
2022/09/02 03:30:07;;;;;;;3.35;1.50;;;12.70;99.90;;;;;;5012622;28;20100;-72
2022/09/02 03:32:33;;;;;;;3.95;1.50;;;12.70;99.90;;;;;;5010366;28;20611;-73
2022/09/02 03:35:00;;;;;;;3.90;1.50;;;12.70;99.90;;;;;;5017300;28;20041;-73
2022/09/02 03:37:26;;;;;;;4.00;1.60;;;12.60;99.90;;;;;;5001548;28;20106;-74
2022/09/02 03:39:52;;;;;;;4.30;1.60;;;12.60;99.90;;;;;;5036038;28;20068;-71
2022/09/02 03:42:17;;;;;;;3.72;1.52;;;12.60;99.90;;;;;;5004668;28;20483;-72
2022/09/02 03:44:43;;;;;;;4.93;1.52;;;12.60;99.90;;;;;;5036093;28;20033;-70
2022/09/02 03:47:09;;;;;;;4.53;1.52;;;12.60;99.90;;;;;;5035571;28;20064;-72
2022/09/02 03:49:35;;;;;;;4.05;1.40;;;12.60;99.90;;;;;;5035960;28;20114;-73
2022/09/02 03:52:01;;;;;;;4.75;1.70;;;12.60;99.90;;;;;;5034788;28;20373;-73
2022/09/02 03:54:26;;;;;;;4.25;1.60;;;12.60;99.90;;;;;;5002114;28;20472;-72
2022/09/02 03:56:52;;;;;;;4.10;1.50;;;12.60;99.90;;;;;;5020668;28;20046;-73
2022/09/02 03:59:18;;;;;;;4.00;1.50;;;12.60;99.90;;;;;;5005284;28;20052;-71
2022/09/02 04:01:44;;;;;;;5.25;1.95;;;12.60;99.90;;;;;;5017979;28;20484;-72
2022/09/02 04:04:10;;;;;;;5.00;1.80;;;12.60;99.90;;;;;;5019393;28;20045;-71
2022/09/02 04:06:37;;;;;;;4.45;1.60;;;12.50;99.90;;;;;;5026871;28;20037;-72
2022/09/02 04:09:04;;;;;;;4.05;1.60;;;12.50;99.90;;;;;;5000370;28;20045;-72
2022/09/02 04:11:30;;;;;;;4.90;1.65;;;12.50;99.90;;;;;;5007098;28;20493;-72
2022/09/02 04:13:55;;;;;;;4.50;1.75;;;12.50;99.90;;;;;;5009205;28;20112;-72
2022/09/02 04:16:27;;;;;;;4.50;1.60;;;12.50;99.90;;;;;;5037408;28;20055;-72
2022/09/02 04:18:54;;;;;;;4.60;1.70;;;12.40;99.90;;;;;;5021539;28;20052;-73
2022/09/02 04:21:20;;;;;;;4.65;1.80;;;12.40;99.90;;;;;;5020208;28;20495;-73
2022/09/02 04:23:46;;;;;;;4.35;1.80;;;12.40;99.90;;;;;;5026709;28;20052;-73
2022/09/02 04:26:14;;;;;;;4.68;1.73;;;12.40;99.90;;;;;;5031482;28;20045;-73
2022/09/02 04:28:40;;;;;;;5.15;1.80;;;12.40;99.90;;;;;;5026402;28;20124;-73
2022/09/02 04:31:12;;;;;;;4.32;1.52;;;12.40;99.90;;;;;;5036745;28;20132;-72
2022/09/02 04:33:38;;;;;;;5.00;1.90;;;12.40;99.90;;;;;;5033242;28;20048;-74
2022/09/02 04:36:09;;;;;;;3.53;1.40;;;12.40;99.90;;;;;;5011018;28;20052;-72
2022/09/02 04:38:35;;;;;;;5.28;1.80;;;12.40;99.90;;;;;;5019309;28;20060;-73
2022/09/02 04:41:10;;;;;;;4.20;1.73;;;12.30;99.90;;;;;;5020094;28;20080;-73
2022/09/02 04:43:35;;;;;;;5.07;2.00;;;12.30;99.90;;;;;;5017602;28;20154;-74
2022/09/02 04:46:04;;;;;;;5.32;1.65;;;12.30;99.90;;;;;;5035502;28;20480;-73
2022/09/02 04:48:31;;;;;;;5.03;1.70;;;12.30;99.90;;;;;;5033226;28;20532;-73
2022/09/02 04:51:01;;;;;;;4.13;1.70;;;12.30;99.90;;;;;;5021641;28;20045;-73
2022/09/02 04:53:27;;;;;;;4.40;1.70;;;12.30;99.90;;;;;;5017974;28;20122;-73
2022/09/02 04:55:53;;;;;;;4.15;1.50;;;12.30;99.90;;;;;;5042334;28;20064;-72
2022/09/02 04:58:18;;;;;;;5.07;1.90;;;12.30;99.90;;;;;;5028859;28;20052;-73
2022/09/02 05:00:44;;;;;;;4.18;1.67;;;12.30;99.90;;;;;;5027185;28;20120;-72
2022/09/02 05:03:11;;;;;;;4.30;1.70;;;12.30;99.90;;;;;;5038489;28;20048;-73
2022/09/02 05:05:38;;;;;;;4.95;2.10;;;12.40;99.90;;;;;;5001636;28;20075;-71
2022/09/02 05:08:04;;;;;;;4.97;1.90;;;12.30;99.90;;;;;;5016748;28;20423;-72
2022/09/02 05:10:31;;;;;;;5.40;1.90;;;12.30;99.90;;;;;;5034288;28;20045;-72
2022/09/02 05:12:58;;;;;;;5.50;1.80;;;12.40;99.90;;;;;;5019132;28;20041;-73
2022/09/02 05:15:25;;;;;;;4.93;1.80;;;12.30;99.90;;;;;;4998486;28;20046;-72
2022/09/02 05:17:51;;;;;;;4.82;1.70;;;12.30;99.90;;;;;;5018313;28;20052;-73
2022/09/02 05:20:18;;;;;;;5.97;1.90;;;12.40;99.90;;;;;;4989915;28;20291;-73
2022/09/02 05:22:45;;;;;;;5.35;1.98;;;12.40;99.90;;;;;;4996066;28;20057;-73
2022/09/02 05:25:11;;;;;;;4.80;1.83;;;12.30;99.90;;;;;;4997074;28;20053;-72
2022/09/02 05:27:37;;;;;;;5.25;1.80;;;12.40;99.90;;;;;;5020516;28;20121;-74
2022/09/02 05:30:04;;;;;;;5.45;2.10;;;12.40;99.90;;;;;;5010088;28;20057;-72
2022/09/02 05:32:30;;;;;;;5.50;1.90;;;12.40;99.90;;;;;;5014339;28;20049;-72
2022/09/02 05:34:56;;;;;;;4.78;1.95;;;12.40;99.90;;;;;;5006087;28;20052;-72
2022/09/02 05:37:23;;;;;;;4.47;2.00;;;12.50;99.90;;;;;;5016696;28;20046;-72
2022/09/02 05:39:49;;;;;;;4.22;1.90;;;12.50;99.90;;;;;;5017270;28;20373;-73
2022/09/02 05:42:15;;;;;;;7.35;2.17;;;12.50;99.90;;;;;;4964521;28;20056;-73
2022/09/02 05:44:43;;;;;;;6.15;1.95;;;12.60;99.90;;;;;;4982881;28;20137;-72
2022/09/02 05:47:10;;;;;;;6.78;2.03;;;12.60;99.90;;;;;;4994806;28;20694;-72
2022/09/02 05:49:36;;;;;;;7.07;2.13;;;12.60;99.90;;;;;;5006157;28;20033;-73
2022/09/02 05:52:03;;;;;;;5.10;2.05;;;12.60;99.90;;;;;;5013167;28;20508;-72
2022/09/02 05:54:31;;;;;;;5.93;2.10;;;12.60;99.90;;;;;;5007326;28;20077;-71
2022/09/02 05:57:03;;;;;;;5.15;2.10;;;12.70;99.90;;;;;;5015206;28;20095;-71
2022/09/02 05:59:30;;;;;;;4.35;1.80;;;12.70;99.90;;;;;;5015535;28;20048;-72
2022/09/02 06:01:58;;;;;;;5.03;2.10;;;12.70;99.90;;;;;;5015540;28;20647;-72
2022/09/02 06:04:24;;;;;;;5.95;2.20;;;12.80;99.90;;;;;;5008984;28;20440;-70
2022/09/02 06:06:51;;;;;;;4.13;1.85;;;12.90;99.90;;;;;;5001237;28;20128;-74
2022/09/02 06:09:19;;;;;;;4.07;1.95;;;13.30;99.90;;;;;;5002280;28;20111;-71
2022/09/02 06:11:48;;;;;;;5.10;1.90;;;13.70;99.90;;;;;;5023958;28;20441;-70
2022/09/02 06:14:20;;;;;;;6.13;2.20;;;14.20;99.90;;;;;;5011595;28;20424;-71
2022/09/02 06:16:46;;;;;;;5.13;1.90;;;14.80;99.90;;;;;;4998834;28;20122;-71
2022/09/02 06:19:12;;;;;;;4.40;1.65;;;15.50;99.90;;;;;;5011611;28;20464;-71
2022/09/02 06:21:38;;;;;;;5.20;2.15;;;16.00;99.90;;;;;;5015743;28;20041;-73
2022/09/02 06:24:09;;;;;;;5.88;2.10;;;16.40;99.90;;;;;;5009103;28;20034;-72
2022/09/02 06:26:36;;;;;;;6.25;2.00;;;16.40;99.90;;;;;;5009824;28;20120;-70
2022/09/02 06:29:04;;;;;;;5.07;1.92;;;16.70;99.90;;;;;;5009860;28;20045;-72
2022/09/02 06:31:29;;;;;;;5.32;2.00;;;17.20;99.90;;;;;;5002122;28;20072;-70
2022/09/02 06:33:56;;;;;;;5.30;2.00;;;17.70;98.70;;;;;;5019206;28;20069;-71
2022/09/02 06:36:24;;;;;;;5.57;2.15;;;17.70;97.30;;;;;;5021637;28;20137;-73
2022/09/02 06:38:52;;;;;;;5.45;1.80;;;18.00;97.10;;;;;;5024555;28;20037;-71
2022/09/02 06:41:25;;;;;;;5.68;1.90;;;18.10;96.30;;;;;;5012827;28;20431;-73
2022/09/02 06:43:52;;;;;;;5.88;2.00;;;18.60;95.80;;;;;;5007821;28;20041;-73
2022/09/02 06:46:22;;;;;;;4.10;2.00;;;18.60;94.90;;;;;;5028828;28;20526;-70
2022/09/02 06:48:49;;;;;;;4.20;1.80;;;18.70;93.90;;;;;;5012128;28;20057;-73
2022/09/02 06:51:16;;;;;;;6.75;1.83;;;18.80;94.20;;;;;;5011657;28;20057;-72
2022/09/02 06:53:42;;;;;;;4.43;1.48;;;18.80;93.70;;;;;;4994879;28;20045;-72
2022/09/02 06:56:09;;;;;;;6.18;1.77;;;18.90;94.10;;;;;;4997740;28;20045;-71
2022/09/02 06:58:35;;;;;;;4.18;1.60;;;19.00;93.80;;;;;;5003537;28;20037;-71
2022/09/02 07:01:01;;;;;;;4.22;1.80;;;19.00;93.10;;;;;;5008846;28;20120;-71
2022/09/02 07:06:11;;;;;;;5.30;1.60;;;19.30;91.90;;;;;;5005326;28;20500;-75
2022/09/02 07:08:41;;;;;;;8.55;1.90;;;19.60;92.10;;;;;;4993820;28;20083;-74
2022/09/02 07:11:16;;;;;;;4.88;1.70;;;19.70;91.60;;;;;;5011157;28;20041;-71
2022/09/02 07:13:42;;;;;;;4.75;1.50;;;20.70;91.20;;;;;;5015939;28;20194;-72
2022/09/02 07:16:08;;;;;;;6.53;1.52;;;20.80;89.20;;;;;;5030008;28;20499;-70
2022/09/02 07:18:34;;;;;;;4.90;1.70;;;20.20;89.10;;;;;;5052334;28;20474;-77
2022/09/02 07:21:00;;;;;;;5.78;1.98;;;20.00;86.80;;;;;;5037268;28;20044;-71
2022/09/02 07:23:26;;;;;;;5.70;1.65;;;19.50;89.10;;;;;;5051519;28;20126;-73
2022/09/02 07:25:54;;;;;;;5.43;1.80;;;19.60;89.80;;;;;;5035707;28;20100;-72
2022/09/02 07:28:19;;;;;;;5.32;1.80;;;19.60;90.00;;;;;;5028297;28;20116;-73
2022/09/02 07:30:45;;;;;;;4.18;1.60;;;19.50;87.80;;;;;;5016839;28;20167;-73
2022/09/02 07:33:12;;;;;;;5.28;1.70;;;19.80;89.40;;;;;;5041117;28;20581;-71
2022/09/02 07:35:40;;;;;;;5.65;1.80;;;20.30;89.10;;;;;;5036816;28;20051;-72
2022/09/02 07:38:07;;;;;;;4.50;1.52;;;20.70;86.90;;;;;;5032388;28;20493;-71
2022/09/02 07:40:35;;;;;;;4.45;1.48;;;20.90;85.10;;;;;;5014430;28;20380;-69
2022/09/02 07:43:02;;;;;;;4.25;1.60;;;21.20;83.60;;;;;;5014019;28;20128;-72
2022/09/02 07:45:30;;;;;;;5.00;1.65;;;21.20;81.10;;;;;;4995072;28;20040;-71
2022/09/02 07:47:56;;;;;;;4.65;1.48;;;21.00;81.60;;;;;;5034882;28;20072;-70
2022/09/02 07:50:23;;;;;;;4.25;1.63;;;20.70;81.20;;;;;;5031917;28;20045;-72
2022/09/02 07:52:49;;;;;;;4.72;1.40;;;20.70;81.10;;;;;;5027722;28;20388;-72
2022/09/02 07:55:15;;;;;;;4.35;1.63;;;21.00;82.90;;;;;;5042156;28;20041;-71
2022/09/02 07:57:41;;;;;;;5.30;1.50;;;21.20;80.90;;;;;;5025350;28;20044;-75
2022/09/02 08:00:07;;;;;;;5.80;1.50;;;21.10;78.20;;;;;;5007594;28;20324;-71
2022/09/02 08:02:33;;;;;;;4.25;1.50;;;21.10;79.80;;;;;;5037100;28;20049;-72
2022/09/02 08:04:59;;;;;;;3.58;1.50;;;21.20;80.10;;;;;;5057542;28;20044;-74
2022/09/02 08:07:25;;;;;;;4.13;1.42;;;21.20;78.20;;;;;;5058943;28;20045;-71
2022/09/02 08:09:51;;;;;;;3.90;1.58;;;21.40;77.30;;;;;;5060816;28;20044;-72
2022/09/02 08:12:17;;;;;;;5.43;1.48;;;21.20;76.70;;;;;;5054740;28;20037;-74
2022/09/02 08:14:43;;;;;;;5.95;1.50;;;21.40;75.90;;;;;;5042220;28;20082;-73
2022/09/02 08:17:09;;;;;;;4.13;1.35;;;21.40;75.90;;;;;;5060945;28;20053;-71
2022/09/02 08:19:35;;;;;;;5.18;1.50;;;21.50;75.40;;;;;;5059474;28;20372;-71
2022/09/02 08:22:07;;;;;;;5.00;1.50;;;21.50;75.10;;;;;;5024832;28;20065;-71
2022/09/02 08:24:33;;;;;;;5.85;1.48;;;21.50;73.40;;;;;;5044871;28;20049;-71
2022/09/02 08:26:59;;;;;;;4.35;1.48;;;21.40;75.00;;;;;;5041993;28;20380;-72
2022/09/02 08:29:24;;;;;;;4.82;1.48;;;21.90;75.40;;;;;;5039944;28;20045;-72
2022/09/02 08:31:50;;;;;;;4.40;1.40;;;22.00;73.10;;;;;;5057972;28;20044;-72
2022/09/02 08:34:16;;;;;;;5.60;1.60;;;22.00;72.80;;;;;;5045860;28;20040;-75
2022/09/02 08:36:42;;;;;;;6.22;1.40;;;22.10;71.50;;;;;;4999883;28;20168;-71
2022/09/02 08:39:09;;;;;;;4.60;1.50;;;22.40;71.10;;;;;;5085063;28;20082;-73
2022/09/02 08:41:37;;;;;;;5.35;1.40;;;22.60;70.30;;;;;;5067431;28;20044;-76
2022/09/02 08:44:04;;;;;;;4.50;1.50;;;22.60;68.80;;;;;;5086229;28;20043;-75
2022/09/02 08:46:32;;;;;;;4.20;1.40;;;22.30;69.90;;;;;;5030678;28;20050;-73
2022/09/02 08:49:02;;;;;;;5.25;1.60;;;22.50;69.20;;;;;;5065739;28;20056;-72
2022/09/02 08:51:47;;;;;;;4.82;1.52;;;22.50;66.70;;;;;;5049291;28;20040;-75
2022/09/02 08:54:44;;;;;;;4.40;1.42;;;22.40;66.40;;;;;;5061373;28;20041;-72
2022/09/02 08:57:11;;;;;;;4.32;1.38;;;22.60;67.40;;;;;;5049838;28;20455;-73
2022/09/02 08:59:38;;;;;;;4.80;1.40;;;22.70;66.20;;;;;;5076957;28;20115;-76
2022/09/02 09:02:03;;;;;;;4.47;1.40;;;22.80;64.20;;;;;;5066564;28;20064;-71
2022/09/02 09:04:50;;;;;;;3.83;1.40;;;22.80;65.50;;;;;;5085145;28;20043;-71
2022/09/02 09:07:33;;;;;;;5.10;1.58;;;22.90;64.90;;;;;;5066815;28;20052;-72
2022/09/02 09:10:12;;;;;;;6.18;1.50;;;23.00;64.20;;;;;;5071110;28;20101;-72
2022/09/02 09:13:04;;;;;;;4.65;1.20;;;23.00;61.80;;;;;;5066244;28;20136;-73
2022/09/02 09:15:35;;;;;;;;;;;23.10;62.40;;;;;;5073804;28;20094;-71
2022/09/02 09:18:06;;;;;;;4.00;1.27;;;23.40;63.00;;;;;;5083010;28;20379;-74
2022/09/02 09:20:37;;;;;;;4.97;1.40;;;23.40;63.10;;;;;;5066851;28;20044;-71
2022/09/02 09:23:32;;;;;;;4.93;1.48;;;23.50;63.40;;;;;;5064569;28;20052;-73
2022/09/02 09:26:10;;;;;;;3.58;1.30;;;24.00;61.20;;;;;;5051729;28;20093;-69
2022/09/02 09:28:44;;;;;;;6.13;1.38;;;24.10;60.70;;;;;;5088309;28;20483;-71
2022/09/02 09:31:13;;;;;;;4.25;1.45;;;24.20;59.20;;;;;;5065727;28;20479;-75
2022/09/02 09:33:40;;;;;;;5.38;1.35;;;24.10;56.70;;;;;;5088614;28;20032;-71
2022/09/02 09:36:06;;;;;;;5.15;1.20;;;24.20;58.10;;;;;;5065390;28;20636;-69
2022/09/02 09:38:34;;;;;;;4.10;1.38;;;24.30;53.00;;;;;;5075767;28;20636;-72
2022/09/02 09:41:21;;;;;;;5.35;1.40;;;24.30;56.60;;;;;;5061930;28;20479;-70
2022/09/02 09:43:47;;;;;;;5.25;1.65;;;24.70;57.60;;;;;;5063614;28;20052;-74
2022/09/02 09:46:25;;;;;;;3.72;1.20;;;24.80;54.70;;;;;;5067756;28;20394;-74
2022/09/02 09:48:51;;;;;;;4.45;1.25;;;24.80;53.90;;;;;;5054181;28;20029;-72
2022/09/02 09:51:17;;;;;;;5.05;1.30;;;25.00;52.80;;;;;;5068775;28;20041;-74
2022/09/02 09:53:43;;;;;;;4.85;1.20;;;25.10;53.30;;;;;;5079952;28;20288;-73
2022/09/02 09:56:12;;;;;;;5.55;1.35;;;25.20;51.60;;;;;;5072938;28;20055;-72
2022/09/02 09:58:38;;;;;;;3.25;1.10;;;25.50;49.50;;;;;;5069193;28;20044;-71
2022/09/02 10:01:20;;;;;;;4.70;1.27;;;25.30;49.70;;;;;;5062470;28;20126;-71
2022/09/02 10:04:09;;;;;;;3.20;1.02;;;25.40;48.40;;;;;;5081316;28;20083;-71
2022/09/02 10:06:38;;;;;;;9.75;1.50;;;25.40;47.20;;;;;;5067484;28;20051;-70
2022/09/02 10:09:13;;;;;;;3.80;0.93;;;25.50;47.60;;;;;;5064817;28;20037;-73
2022/09/02 10:11:52;;;;;;;4.10;1.20;;;25.60;45.80;;;;;;5065324;28;20044;-76
2022/09/02 10:14:18;;;;;;;4.53;1.20;;;25.40;45.90;;;;;;5066942;28;20143;-74
2022/09/02 10:17:05;;;;;;;2.63;1.00;;;25.40;45.40;;;;;;5068751;28;20167;-73
2022/09/02 10:19:56;;;;;;;5.05;1.02;;;25.40;44.80;;;;;;5062314;28;20044;-71
2022/09/02 10:22:48;;;;;;;3.50;1.20;;;25.40;45.00;;;;;;5046168;28;20060;-75
2022/09/02 10:25:38;;;;;;;5.07;1.20;;;25.30;45.20;;;;;;5066571;28;20113;-77
2022/09/02 10:28:41;;;;;;;4.15;1.08;;;25.10;46.00;;;;;;5065994;28;20767;-70
2022/09/02 10:31:23;;;;;;;3.65;1.25;;;25.10;45.30;;;;;;5065673;28;20051;-75
2022/09/02 10:33:52;;;;;;;;;;;25.10;43.60;;;;;;5065929;28;20082;-73
2022/09/02 10:36:33;;;;;;;3.80;1.20;;;25.10;44.00;;;;;;5069777;28;20400;-72
2022/09/02 10:39:26;;;;;;;4.00;1.02;;;25.30;45.60;;;;;;5041247;28;20036;-73
2022/09/02 10:42:02;;;;;;;3.33;1.00;;;25.60;45.40;;;;;;5064069;28;20044;-73
2022/09/02 10:44:57;;;;;;;3.38;1.20;;;25.50;44.70;;;;;;5064391;28;20076;-70
2022/09/02 10:47:36;;;;;;;4.07;1.10;;;25.70;44.20;;;;;;5085038;28;20047;-72
2022/09/02 10:50:20;;;;;;;3.92;1.20;;;25.80;44.10;;;;;;5053860;28;20056;-71
2022/09/02 10:52:46;;;;;;;6.97;1.20;;;26.00;44.30;;;;;;5067768;28;20107;-69
2022/09/02 10:55:29;;;;;;;5.15;1.20;;;26.10;43.00;;;;;;5083991;28;20117;-75
2022/09/02 10:58:06;;;;;;;4.95;1.23;;;26.30;43.30;;;;;;5048968;28;20043;-74
2022/09/02 11:00:35;;;;;;;4.55;1.17;;;26.40;42.00;;;;;;5062298;28;20111;-72
2022/09/02 11:03:26;;;;;;;5.47;1.20;;;26.10;42.00;;;;;;5056802;28;20047;-72
2022/09/02 11:05:57;;;;;;;2.40;0.98;;;26.20;41.60;;;;;;5063952;28;20436;-71
2022/09/02 11:08:41;;;;;;;5.47;1.10;;;26.50;41.90;;;;;;5067149;28;20063;-74
2022/09/02 11:11:31;;;;;;;3.85;1.20;;;26.00;39.30;;;;;;5048134;28;20051;-73
2022/09/02 11:13:56;;;;;;;3.90;1.20;;;25.80;41.10;;;;;;5064678;28;20056;-73
2022/09/02 11:16:41;;;;;;;4.65;1.00;;;26.10;40.80;;;;;;5085055;28;20053;-74
2022/09/02 11:19:20;;;;;;;6.80;1.50;;;26.20;41.10;;;;;;5066501;28;20040;-71
2022/09/02 11:21:45;;;;;;;3.67;1.15;;;26.40;40.70;;;;;;5065407;28;20047;-72
2022/09/02 11:24:45;;;;;;;4.97;1.02;;;26.40;40.40;;;;;;5087408;28;20043;-72
2022/09/02 11:27:35;;;;;;;4.18;1.20;;;26.50;40.10;;;;;;5057225;28;20445;-71
2022/09/02 11:30:24;;;;;;;2.92;1.10;;;26.60;39.60;;;;;;5082438;28;20040;-75
2022/09/02 11:33:01;;;;;;;4.45;1.08;;;26.70;38.80;;;;;;5070258;28;20052;-78
2022/09/02 11:35:31;;;;;;;6.10;1.20;;;26.80;38.90;;;;;;5082577;28;20047;-73
2022/09/02 11:38:04;;;;;;;4.47;1.08;;;26.70;39.20;;;;;;5070327;28;20370;-76
2022/09/02 11:40:55;;;;;;;4.47;1.10;;;26.50;37.90;;;;;;5065580;28;20041;-73
2022/09/02 11:43:47;;;;;;;5.35;0.90;;;26.60;39.50;;;;;;5087485;28;20134;-75
2022/09/02 11:46:35;;;;;;;4.43;1.10;;;26.70;38.40;;;;;;5072231;28;20059;-73
2022/09/02 11:49:26;;;;;;;3.20;1.10;;;26.70;38.30;;;;;;5076526;28;20048;-73
2022/09/02 11:52:07;;;;;;;3.70;1.15;;;26.60;37.90;;;;;;5077479;28;20051;-74
2022/09/02 11:54:40;;;;;;;7.03;1.20;;;26.50;39.00;;;;;;5061408;28;20041;-75
2022/09/02 11:57:11;;;;;;;3.90;0.98;;;26.50;39.40;;;;;;5044936;28;20056;-74
2022/09/02 11:59:49;;;;;;;;;;;26.50;38.90;;;;;;5045639;28;20037;-71
2022/09/02 12:02:47;;;;;;;3.05;1.15;;;26.50;38.90;;;;;;5082453;28;19939;-73
2022/09/02 12:05:31;;;;;;;8.23;1.40;;;26.60;38.70;;;;;;5072134;28;20059;-72
2022/09/02 12:08:03;;;;;;;4.50;1.20;;;26.50;39.00;;;;;;5088791;28;20142;-71
2022/09/02 12:10:48;;;;;;;3.58;1.20;;;26.50;38.30;;;;;;5067083;28;20530;-73
2022/09/02 12:13:34;;;;;;;4.85;1.30;;;26.50;37.50;;;;;;5054915;28;20135;-73
2022/09/02 12:16:15;;;;;;;5.40;1.30;;;26.40;37.60;;;;;;5053894;28;20145;-73
2022/09/02 12:19:09;;;;;;;6.20;1.17;;;26.30;38.20;;;;;;5065418;28;20555;-72
2022/09/02 12:21:55;;;;;;;5.78;1.30;;;26.40;38.20;;;;;;5023844;28;20427;-70
2022/09/02 12:24:23;;;;;;;4.70;1.25;;;26.40;38.60;;;;;;5059613;28;20083;-73
2022/09/02 12:26:52;;;;;;;3.70;1.15;;;26.40;37.50;;;;;;5052116;28;20078;-72
2022/09/02 12:29:18;;;;;;;3.10;0.98;;;26.20;38.00;;;;;;5066398;28;20033;-71
2022/09/02 12:31:48;;;;;;;4.82;1.30;;;26.40;38.90;;;;;;5056239;28;20353;-73
2022/09/02 12:34:20;;;;;;;4.82;1.17;;;26.50;38.50;;;;;;5027681;28;20045;-72
2022/09/02 12:36:50;;;;;;;5.55;1.40;;;26.60;38.30;;;;;;5051485;28;20522;-71
2022/09/02 12:39:22;;;;;;;3.85;1.33;;;26.60;38.40;;;;;;5066161;28;20116;-70
2022/09/02 12:42:06;;;;;;;5.75;1.35;;;26.70;38.50;;;;;;5020023;28;20128;-72
2022/09/02 12:44:50;;;;;;;4.50;1.10;;;26.80;37.60;;;;;;5044883;28;20052;-73
2022/09/02 12:47:19;;;;;;;5.20;1.30;;;26.90;36.90;;;;;;5039773;28;20437;-71
2022/09/02 12:49:51;;;;;;;2.78;1.10;;;26.90;37.00;;;;;;5038893;28;20033;-74
2022/09/02 12:52:35;;;;;;;4.57;1.20;;;26.60;37.60;;;;;;5036114;28;20480;-72
2022/09/02 12:55:11;;;;;;;4.10;1.20;;;26.60;37.50;;;;;;5050449;28;20379;-72
2022/09/02 12:57:40;;;;;;;4.60;1.20;;;26.60;37.00;;;;;;5050195;28;20049;-70
2022/09/02 13:00:06;;;;;;;5.13;1.10;;;26.60;37.50;;;;;;5067866;28;20041;-71
2022/09/02 13:02:35;;;;;;;3.95;1.25;;;26.80;37.70;;;;;;5061866;28;20041;-71
2022/09/02 13:05:07;;;;;;;5.32;1.40;;;26.80;37.30;;;;;;5077964;28;20482;-70
2022/09/02 13:07:58;;;;;;;3.83;1.20;;;26.70;37.30;;;;;;5037696;28;20200;-71